Time;durP1;ratioP1;P1;durP2;ratioP2;P2;SDS_P1;SDS_P2;PMS_P1;PMS_P2;Temp;Humidity;BMP_temperature;BMP_pressure;BME280_temperature;BME280_humidity;BME280_pressure;Samples;Min_cycle;Max_cycle;Signal;HPM_P1;HPM_P2
2022/08/03 00:02:39;;;;;;;5.37;2.00;;;19.10;74.50;;;;;;5008454;28;20456;-70
2022/08/03 00:05:24;;;;;;;3.77;2.07;;;19.10;74.50;;;;;;5011738;28;20594;-70
2022/08/03 00:08:10;;;;;;;3.77;2.20;;;19.10;74.40;;;;;;5014770;28;20546;-70
2022/08/03 00:10:55;;;;;;;3.83;2.40;;;19.00;74.00;;;;;;5012094;28;20426;-70
2022/08/03 00:13:41;;;;;;;3.60;2.20;;;19.00;74.40;;;;;;5018526;28;20945;-70
2022/08/03 00:16:26;;;;;;;3.57;2.17;;;18.90;74.60;;;;;;5010025;28;20843;-70
2022/08/03 00:19:13;;;;;;;4.13;2.47;;;18.80;75.10;;;;;;5012407;28;20880;-70
2022/08/03 00:21:59;;;;;;;3.53;2.30;;;18.70;75.70;;;;;;5017252;28;20513;-71
2022/08/03 00:24:44;;;;;;;4.13;2.07;;;18.70;76.40;;;;;;5018035;28;21231;-70
2022/08/03 00:27:30;;;;;;;3.00;2.53;;;18.70;76.50;;;;;;5003671;28;20441;-70
2022/08/03 00:30:16;;;;;;;7.07;2.30;;;18.70;76.60;;;;;;5005294;28;20530;-70
2022/08/03 00:33:02;;;;;;;4.50;2.37;;;18.70;76.80;;;;;;5017468;28;20969;-70
2022/08/03 00:35:49;;;;;;;3.50;2.47;;;18.60;77.20;;;;;;5008891;28;20462;-70
2022/08/03 00:38:35;;;;;;;4.83;2.27;;;18.60;76.90;;;;;;5012565;28;20444;-70
2022/08/03 00:41:20;;;;;;;3.03;2.20;;;18.50;77.30;;;;;;5015196;28;20844;-71
2022/08/03 00:44:06;;;;;;;4.37;2.20;;;18.50;77.80;;;;;;5012720;28;20917;-70
2022/08/03 00:46:51;;;;;;;3.40;2.47;;;18.40;78.00;;;;;;5012688;28;20433;-70
2022/08/03 00:49:38;;;;;;;3.07;2.37;;;18.40;78.30;;;;;;5013082;28;20856;-70
2022/08/03 00:52:25;;;;;;;3.07;2.37;;;18.50;78.40;;;;;;5016303;28;20451;-70
2022/08/03 00:55:12;;;;;;;2.57;2.10;;;18.50;78.20;;;;;;5014834;28;20874;-70
2022/08/03 00:58:00;;;;;;;4.90;2.20;;;18.60;78.00;;;;;;5016354;28;20856;-70
2022/08/03 01:00:45;;;;;;;3.63;2.47;;;18.70;77.80;;;;;;5011345;28;20484;-70
2022/08/03 01:03:31;;;;;;;8.03;2.67;;;18.70;77.40;;;;;;5015286;28;20452;-70
2022/08/03 01:06:19;;;;;;;4.33;2.07;;;18.70;77.30;;;;;;5007994;28;20987;-71
2022/08/03 01:09:13;;;;;;;3.83;2.40;;;18.60;77.50;;;;;;5016565;28;20488;-70
2022/08/03 01:12:04;;;;;;;5.43;1.90;;;18.50;77.80;;;;;;5013438;28;20580;-70
2022/08/03 01:14:58;;;;;;;7.00;2.00;;;18.40;78.40;;;;;;5013844;28;20816;-70
2022/08/03 01:17:50;;;;;;;10.10;2.47;;;18.30;79.10;;;;;;5017090;28;20793;-71
2022/08/03 01:20:39;;;;;;;2.53;2.23;;;18.20;79.70;;;;;;5010596;28;20448;-71
2022/08/03 01:24:03;;;;;;;2.83;2.07;;;18.10;80.30;;;;;;5017528;28;20472;-70
2022/08/03 01:26:59;;;;;;;3.27;2.00;;;18.10;81.00;;;;;;4989405;28;21095;-71
2022/08/03 01:29:59;;;;;;;2.47;1.97;;;18.10;81.40;;;;;;5010549;28;20442;-71
2022/08/03 01:32:52;;;;;;;3.30;2.60;;;18.00;81.50;;;;;;5019059;28;20449;-71
2022/08/03 01:35:43;;;;;;;3.00;2.37;;;18.10;81.00;;;;;;5011746;28;20946;-70
2022/08/03 01:38:32;;;;;;;2.40;1.97;;;18.10;81.30;;;;;;5012898;28;20416;-71
2022/08/03 01:41:21;;;;;;;3.43;2.37;;;18.10;81.40;;;;;;5013307;28;20428;-71
2022/08/03 01:44:10;;;;;;;3.63;2.37;;;18.00;81.50;;;;;;5017918;28;20494;-70
2022/08/03 01:46:59;;;;;;;5.80;2.20;;;18.00;82.00;;;;;;5013548;28;20442;-70
2022/08/03 01:49:46;;;;;;;3.07;2.20;;;17.90;82.20;;;;;;5015181;28;20440;-71
2022/08/03 01:52:33;;;;;;;3.70;2.27;;;17.80;82.10;;;;;;5021818;28;20452;-71
2022/08/03 01:55:20;;;;;;;5.67;2.47;;;17.90;82.20;;;;;;5007610;28;20480;-70
2022/08/03 01:58:07;;;;;;;3.73;2.60;;;18.00;82.30;;;;;;5011233;28;20441;-70
2022/08/03 02:00:58;;;;;;;2.97;2.13;;;18.20;81.60;;;;;;5014121;28;20442;-70
2022/08/03 02:03:46;;;;;;;4.33;1.93;;;18.20;81.10;;;;;;5013194;28;20449;-70
2022/08/03 02:06:34;;;;;;;2.93;2.23;;;18.00;81.60;;;;;;5009534;28;20535;-71
2022/08/03 02:09:22;;;;;;;3.40;2.30;;;18.00;82.20;;;;;;5017477;28;20444;-70
2022/08/03 02:12:10;;;;;;;3.50;2.70;;;17.90;82.00;;;;;;5014157;28;20446;-70
2022/08/03 02:14:56;;;;;;;2.50;2.03;;;17.80;82.10;;;;;;5005600;28;20482;-70
2022/08/03 02:17:44;;;;;;;3.90;2.37;;;17.70;82.90;;;;;;5011884;28;20986;-70
2022/08/03 02:20:35;;;;;;;3.00;2.10;;;17.60;83.70;;;;;;5012724;28;20445;-70
2022/08/03 02:23:20;;;;;;;5.13;1.80;;;17.70;83.30;;;;;;5013284;28;20464;-72
2022/08/03 02:26:15;;;;;;;2.20;1.57;;;17.70;83.30;;;;;;5006527;28;20562;-71
2022/08/03 02:29:06;;;;;;;7.57;2.30;;;17.60;84.00;;;;;;5016776;28;20423;-71
2022/08/03 02:31:54;;;;;;;3.80;2.53;;;17.60;84.10;;;;;;5005780;28;20462;-71
2022/08/03 02:34:44;;;;;;;3.00;2.10;;;17.80;83.60;;;;;;5006656;28;20477;-71
2022/08/03 02:37:35;;;;;;;3.40;2.33;;;17.80;83.60;;;;;;5012298;28;20468;-71
2022/08/03 02:40:22;;;;;;;6.40;2.40;;;17.80;83.50;;;;;;5005300;28;20454;-71
2022/08/03 02:43:11;;;;;;;3.67;2.60;;;17.70;83.30;;;;;;5010420;28;20983;-71
2022/08/03 02:45:57;;;;;;;3.20;2.50;;;17.60;83.50;;;;;;5005241;28;20473;-71
2022/08/03 02:48:45;;;;;;;4.33;2.57;;;17.40;84.50;;;;;;5010117;28;20500;-71
2022/08/03 02:51:34;;;;;;;7.73;2.50;;;17.40;85.40;;;;;;5015857;28;20452;-71
2022/08/03 02:54:23;;;;;;;3.63;2.20;;;17.40;85.60;;;;;;5010810;28;20580;-71
2022/08/03 02:57:11;;;;;;;4.30;2.23;;;17.50;85.40;;;;;;5011711;28;20527;-71
2022/08/03 02:59:59;;;;;;;3.73;2.20;;;17.60;85.20;;;;;;5014640;28;20431;-71
2022/08/03 03:02:45;;;;;;;5.30;2.40;;;17.60;85.00;;;;;;5013701;28;20472;-71
2022/08/03 03:05:31;;;;;;;2.87;2.33;;;17.50;85.40;;;;;;5011911;28;21056;-71
2022/08/03 03:08:20;;;;;;;5.83;2.40;;;17.40;86.00;;;;;;5015947;28;20487;-71
2022/08/03 03:11:08;;;;;;;3.13;2.50;;;17.40;86.20;;;;;;5006634;28;20597;-71
2022/08/03 03:13:56;;;;;;;4.23;3.23;;;17.40;86.30;;;;;;5009223;28;20474;-71
2022/08/03 03:16:43;;;;;;;6.10;2.70;;;17.60;86.20;;;;;;5015540;28;21119;-71
2022/08/03 03:19:29;;;;;;;3.90;2.80;;;17.50;86.20;;;;;;5008153;28;20440;-71
2022/08/03 03:22:16;;;;;;;3.97;2.20;;;17.40;86.30;;;;;;5009175;28;20444;-71
2022/08/03 03:25:03;;;;;;;4.37;2.60;;;17.40;86.30;;;;;;5007498;28;20477;-71
2022/08/03 03:27:51;;;;;;;4.00;2.40;;;17.30;86.80;;;;;;5006150;28;21407;-71
2022/08/03 03:30:37;;;;;;;7.80;2.60;;;17.30;87.40;;;;;;5012864;28;20468;-71
2022/08/03 03:33:23;;;;;;;3.57;2.10;;;17.40;86.70;;;;;;5007738;28;20631;-70
2022/08/03 03:36:09;;;;;;;3.13;2.50;;;17.30;87.30;;;;;;5008462;28;20473;-71
2022/08/03 03:38:55;;;;;;;3.43;2.70;;;17.10;87.80;;;;;;5008646;28;20424;-71
2022/08/03 03:41:41;;;;;;;4.40;3.10;;;17.10;88.30;;;;;;5009598;28;20593;-71
2022/08/03 03:44:28;;;;;;;10.90;2.57;;;17.10;88.50;;;;;;5006520;28;20510;-71
2022/08/03 03:47:14;;;;;;;2.90;2.23;;;17.10;88.70;;;;;;5009515;28;20446;-71
2022/08/03 03:50:00;;;;;;;3.30;2.80;;;17.30;89.10;;;;;;5007250;28;20441;-71
2022/08/03 03:52:45;;;;;;;3.13;2.50;;;17.40;89.70;;;;;;5010740;28;20452;-71
2022/08/03 03:55:31;;;;;;;3.20;2.50;;;17.40;88.70;;;;;;5011020;28;20455;-71
2022/08/03 03:58:17;;;;;;;3.07;2.10;;;17.30;88.60;;;;;;5011533;28;20472;-71
2022/08/03 04:01:04;;;;;;;4.30;2.60;;;17.20;88.70;;;;;;5011906;28;20453;-71
2022/08/03 04:03:50;;;;;;;3.10;2.50;;;17.10;89.10;;;;;;5009192;28;20419;-71
2022/08/03 04:12:46;;;;;;;3.17;2.70;;;17.30;89.00;;;;;;5016737;28;20528;-71
2022/08/03 04:15:33;;;;;;;5.07;2.47;;;17.20;88.90;;;;;;5015682;28;20855;-71
2022/08/03 04:18:22;;;;;;;4.57;2.13;;;17.10;89.60;;;;;;5015649;28;20468;-71
2022/08/03 04:21:11;;;;;;;5.20;2.60;;;17.00;89.40;;;;;;5018451;28;20484;-71
2022/08/03 04:24:01;;;;;;;3.60;2.60;;;16.80;90.10;;;;;;5009022;28;20496;-71
2022/08/03 04:26:50;;;;;;;3.40;2.73;;;16.80;90.90;;;;;;5012289;28;20416;-71
2022/08/03 04:29:39;;;;;;;4.23;2.07;;;16.80;91.30;;;;;;5018644;28;20481;-70
2022/08/03 04:32:27;;;;;;;3.63;2.63;;;16.90;91.60;;;;;;5016299;28;20795;-71
2022/08/03 04:35:14;;;;;;;3.07;2.53;;;16.80;91.90;;;;;;5015825;28;21120;-71
2022/08/03 04:38:06;;;;;;;2.63;1.97;;;16.90;92.10;;;;;;5014015;28;20465;-71
2022/08/03 04:40:54;;;;;;;3.70;2.73;;;16.80;92.10;;;;;;5007923;28;20453;-71
2022/08/03 04:43:40;;;;;;;5.27;2.80;;;16.90;92.30;;;;;;5007521;28;20453;-71
2022/08/03 04:46:29;;;;;;;3.07;2.43;;;16.90;92.40;;;;;;5013885;28;20497;-71
2022/08/03 04:49:15;;;;;;;4.40;2.43;;;17.10;92.20;;;;;;5014162;28;20445;-71
2022/08/03 04:52:02;;;;;;;3.20;2.50;;;17.30;92.50;;;;;;5011748;28;20604;-71
2022/08/03 04:54:48;;;;;;;5.20;2.67;;;17.40;92.50;;;;;;5001687;28;20463;-70
2022/08/03 04:57:34;;;;;;;4.70;2.10;;;17.50;92.30;;;;;;5011121;28;20556;-71
2022/08/03 05:00:20;;;;;;;4.13;2.47;;;17.60;91.90;;;;;;5009967;28;20450;-71
2022/08/03 05:03:06;;;;;;;5.23;2.40;;;17.60;91.40;;;;;;5009995;28;21521;-71
2022/08/03 05:05:52;;;;;;;3.37;2.57;;;17.60;91.30;;;;;;5010999;28;20602;-71
2022/08/03 05:08:39;;;;;;;6.33;3.20;;;17.60;91.40;;;;;;5012845;28;20814;-71
2022/08/03 05:11:25;;;;;;;3.10;2.63;;;17.80;91.70;;;;;;5013010;28;20510;-71
2022/08/03 05:14:10;;;;;;;3.10;2.60;;;17.90;91.70;;;;;;5012661;28;21014;-71
2022/08/03 05:16:56;;;;;;;8.93;3.20;;;17.90;91.70;;;;;;5011892;28;20517;-71
2022/08/03 05:19:41;;;;;;;4.67;3.20;;;17.90;91.40;;;;;;5013088;28;20429;-71
2022/08/03 05:22:27;;;;;;;7.70;3.13;;;18.00;91.30;;;;;;5010496;28;20445;-71
2022/08/03 05:25:14;;;;;;;4.10;2.90;;;18.10;91.10;;;;;;5017366;28;20489;-71
2022/08/03 05:28:00;;;;;;;3.17;2.63;;;18.30;91.20;;;;;;5009403;28;20437;-71
2022/08/03 05:30:45;;;;;;;3.77;2.70;;;18.40;91.20;;;;;;5009193;28;20444;-71
2022/08/03 05:33:31;;;;;;;6.27;3.07;;;18.50;91.10;;;;;;5010679;28;20542;-71
2022/08/03 05:36:17;;;;;;;4.10;2.20;;;18.70;91.40;;;;;;5014182;28;20484;-71
2022/08/03 05:39:03;;;;;;;3.50;2.70;;;18.80;91.60;;;;;;5013307;28;20438;-71
2022/08/03 05:41:49;;;;;;;4.07;2.53;;;18.90;91.00;;;;;;5010616;28;20474;-71
2022/08/03 05:44:37;;;;;;;3.60;2.53;;;19.00;91.00;;;;;;5011540;28;20475;-71
2022/08/03 05:47:23;;;;;;;4.17;2.80;;;19.10;91.00;;;;;;5015609;28;20436;-71
2022/08/03 05:50:09;;;;;;;4.20;2.80;;;19.20;90.80;;;;;;5011935;28;20441;-71
2022/08/03 05:52:56;;;;;;;4.07;2.47;;;19.30;90.60;;;;;;5007267;28;20573;-70
2022/08/03 05:55:42;;;;;;;3.60;2.80;;;19.40;91.00;;;;;;5014422;28;20512;-71
2022/08/03 05:58:29;;;;;;;12.13;2.60;;;19.50;90.90;;;;;;5010090;28;20823;-71
2022/08/03 06:01:14;;;;;;;3.00;2.20;;;19.50;90.60;;;;;;5010879;28;20415;-71
2022/08/03 06:04:00;;;;;;;5.87;2.70;;;19.60;90.90;;;;;;5012313;28;20449;-71
2022/08/03 06:06:46;;;;;;;8.30;2.53;;;19.70;90.50;;;;;;5008164;28;21029;-71
2022/08/03 06:09:32;;;;;;;4.37;2.50;;;19.90;90.30;;;;;;5014832;28;20448;-71
2022/08/03 06:12:17;;;;;;;4.63;2.43;;;19.90;89.90;;;;;;5009236;28;20441;-71
2022/08/03 06:15:05;;;;;;;3.40;2.80;;;20.10;88.50;;;;;;5009822;28;20476;-71
2022/08/03 06:17:52;;;;;;;5.70;2.80;;;20.20;88.90;;;;;;5010771;28;20480;-71
2022/08/03 06:20:38;;;;;;;5.50;2.30;;;20.40;87.60;;;;;;5001600;28;20454;-71
2022/08/03 06:23:23;;;;;;;5.20;2.70;;;20.50;85.90;;;;;;5006905;28;20791;-71
2022/08/03 06:26:09;;;;;;;3.80;2.20;;;20.70;86.10;;;;;;5009681;28;20584;-71
2022/08/03 06:28:54;;;;;;;5.83;2.03;;;20.80;85.00;;;;;;5011160;28;20532;-71
2022/08/03 06:31:42;;;;;;;3.67;2.77;;;20.90;84.60;;;;;;5008155;28;20449;-71
2022/08/03 06:34:27;;;;;;;3.10;2.77;;;21.00;83.70;;;;;;5008463;28;20929;-71
2022/08/03 06:37:13;;;;;;;6.03;2.47;;;21.20;82.70;;;;;;5005733;28;20468;-71
2022/08/03 06:39:58;;;;;;;2.37;1.80;;;21.30;83.10;;;;;;5007128;28;20533;-71
2022/08/03 06:42:44;;;;;;;3.47;2.33;;;21.40;81.60;;;;;;5003499;28;20452;-71
2022/08/03 06:45:30;;;;;;;3.87;2.17;;;21.50;78.10;;;;;;5014489;28;20472;-71
2022/08/03 06:48:17;;;;;;;5.10;2.60;;;21.60;77.30;;;;;;5007036;28;20486;-71
2022/08/03 06:51:02;;;;;;;3.80;1.97;;;21.80;74.10;;;;;;5007791;28;20954;-71
2022/08/03 06:53:48;;;;;;;5.13;2.47;;;21.90;72.20;;;;;;5007803;28;21030;-71
2022/08/03 06:56:34;;;;;;;3.57;2.23;;;22.00;71.00;;;;;;5011671;28;20989;-71
2022/08/03 06:59:19;;;;;;;3.00;2.07;;;22.10;71.00;;;;;;5007751;28;20923;-71
2022/08/03 07:02:04;;;;;;;3.70;2.50;;;22.20;71.00;;;;;;5003396;28;20453;-71
2022/08/03 07:04:51;;;;;;;3.10;2.10;;;22.30;71.50;;;;;;5012346;28;20468;-71
2022/08/03 07:07:37;;;;;;;2.80;2.20;;;22.40;71.80;;;;;;5010974;28;20440;-71
2022/08/03 07:10:23;;;;;;;3.40;2.13;;;22.50;69.40;;;;;;5011518;28;20643;-71
2022/08/03 07:13:09;;;;;;;3.30;2.10;;;22.60;69.30;;;;;;5006177;28;20948;-71
2022/08/03 07:15:55;;;;;;;2.57;2.00;;;22.80;71.90;;;;;;5008710;28;20926;-71
2022/08/03 07:18:40;;;;;;;3.70;2.37;;;22.90;70.80;;;;;;5010205;28;20822;-71
2022/08/03 07:21:27;;;;;;;2.93;2.03;;;23.10;72.40;;;;;;5005707;28;20438;-70
2022/08/03 07:24:13;;;;;;;6.57;2.20;;;23.20;71.10;;;;;;5007507;28;20913;-71
2022/08/03 07:26:59;;;;;;;3.33;2.03;;;23.30;70.90;;;;;;5010352;28;20798;-71
2022/08/03 07:29:44;;;;;;;4.33;1.90;;;23.50;69.50;;;;;;5010897;28;20933;-71
2022/08/03 07:32:30;;;;;;;3.60;2.00;;;23.60;66.50;;;;;;5007143;28;20865;-71
2022/08/03 07:35:16;;;;;;;3.50;2.00;;;23.80;61.40;;;;;;5012237;28;20449;-71
2022/08/03 07:38:03;;;;;;;2.93;1.90;;;24.00;62.30;;;;;;5008035;28;20524;-71
2022/08/03 07:40:49;;;;;;;3.07;2.00;;;24.10;61.00;;;;;;5008097;28;20450;-71
2022/08/03 07:43:34;;;;;;;3.70;2.27;;;24.30;57.90;;;;;;5003165;28;20452;-71
2022/08/03 07:46:20;;;;;;;2.87;1.80;;;24.40;53.40;;;;;;5013459;28;20520;-71
2022/08/03 07:49:05;;;;;;;3.80;2.20;;;24.60;49.40;;;;;;5007058;28;20826;-71
2022/08/03 07:54:52;;;;;;;3.33;1.90;;;24.90;46.70;;;;;;5011351;28;20504;-71
2022/08/03 07:57:38;;;;;;;3.97;2.10;;;25.00;47.00;;;;;;5007195;28;20996;-71
2022/08/03 08:00:23;;;;;;;3.07;2.30;;;25.20;46.70;;;;;;5008536;28;20490;-71
2022/08/03 08:03:09;;;;;;;6.27;2.00;;;25.30;46.10;;;;;;4996576;28;20454;-71
2022/08/03 08:05:54;;;;;;;8.50;1.93;;;25.40;45.20;;;;;;5006160;28;20480;-71
2022/08/03 08:08:40;;;;;;;2.37;1.73;;;25.60;45.40;;;;;;5008461;28;20448;-71
2022/08/03 08:11:27;;;;;;;2.60;1.70;;;25.80;42.30;;;;;;5014318;28;20469;-71
2022/08/03 08:14:13;;;;;;;2.70;1.87;;;25.90;41.70;;;;;;5008857;28;20468;-71
2022/08/03 08:16:58;;;;;;;3.23;2.50;;;26.00;37.10;;;;;;5004196;28;20449;-71
2022/08/03 08:19:44;;;;;;;3.83;2.13;;;26.10;38.90;;;;;;5011731;28;20433;-71
2022/08/03 08:22:30;;;;;;;3.00;1.87;;;26.30;40.80;;;;;;5009100;28;20503;-71
2022/08/03 08:25:15;;;;;;;4.93;2.63;;;26.40;38.40;;;;;;5038542;23;20566;-76
2022/08/03 08:28:03;;;;;;;3.70;2.20;;;26.50;36.40;;;;;;5062313;28;20454;-76
2022/08/03 08:30:49;;;;;;;3.73;2.40;;;26.60;36.90;;;;;;5063356;28;20442;-76
2022/08/03 08:33:34;;;;;;;4.70;1.90;;;26.80;36.90;;;;;;5056119;28;20967;-76
2022/08/03 08:36:20;;;;;;;7.30;1.80;;;26.80;36.00;;;;;;5055829;28;20994;-76
2022/08/03 08:39:06;;;;;;;2.80;1.87;;;27.10;35.60;;;;;;5045064;28;20479;-76
2022/08/03 08:41:52;;;;;;;4.53;2.07;;;27.20;34.00;;;;;;5047476;28;20444;-76
2022/08/03 08:44:39;;;;;;;5.73;1.90;;;27.30;32.50;;;;;;5047930;28;20471;-76
2022/08/03 08:47:29;;;;;;;7.07;2.10;;;27.40;31.20;;;;;;5047058;28;20440;-76
2022/08/03 08:50:19;;;;;;;2.90;1.90;;;27.50;33.10;;;;;;5053273;28;20466;-76
2022/08/03 08:53:07;;;;;;;5.10;2.00;;;27.50;31.40;;;;;;5054959;28;20450;-76
2022/08/03 08:55:56;;;;;;;2.80;1.87;;;27.60;32.70;;;;;;5053223;28;20498;-76
2022/08/03 08:58:47;;;;;;;3.70;1.60;;;27.70;33.30;;;;;;5056538;28;20465;-76
2022/08/03 09:01:34;;;;;;;4.37;2.20;;;27.70;32.20;;;;;;5047983;28;20937;-76
2022/08/03 09:04:20;;;;;;;4.73;1.90;;;27.80;31.30;;;;;;5058133;28;20450;-76
2022/08/03 09:07:07;;;;;;;2.77;1.70;;;27.90;31.40;;;;;;5056669;28;20968;-76
2022/08/03 09:09:52;;;;;;;5.10;1.97;;;28.00;28.20;;;;;;5056758;28;20582;-76
2022/08/03 09:12:40;;;;;;;9.20;1.90;;;28.10;29.40;;;;;;5045443;28;20447;-76
2022/08/03 09:15:26;;;;;;;6.93;1.77;;;28.10;29.00;;;;;;5053750;28;20493;-76
2022/08/03 09:18:14;;;;;;;8.13;2.53;;;28.10;31.10;;;;;;5051906;28;20578;-76
2022/08/03 09:21:13;;;;;;;6.20;2.57;;;28.20;30.20;;;;;;5049849;28;20458;-76
2022/08/03 09:24:00;;;;;;;2.80;2.00;;;28.40;27.60;;;;;;5053948;28;21056;-76
2022/08/03 09:26:50;;;;;;;3.80;2.23;;;28.50;28.00;;;;;;5052592;28;20478;-76
2022/08/03 09:29:36;;;;;;;3.40;1.80;;;28.50;28.40;;;;;;5051585;28;20922;-76
2022/08/03 09:32:23;;;;;;;8.07;2.10;;;28.60;26.60;;;;;;5047144;28;20450;-76
2022/08/03 09:35:10;;;;;;;4.83;2.40;;;28.70;29.00;;;;;;5049967;28;20459;-76
2022/08/03 09:38:12;;;;;;;4.50;2.40;;;28.70;27.90;;;;;;5056329;28;20447;-76
2022/08/03 09:40:58;;;;;;;6.43;2.17;;;28.70;26.70;;;;;;5047858;28;20818;-76
2022/08/03 09:43:46;;;;;;;3.97;2.23;;;28.80;26.50;;;;;;5052592;28;20444;-76
2022/08/03 09:46:32;;;;;;;3.80;1.77;;;29.00;26.10;;;;;;5053781;28;20579;-76
2022/08/03 09:49:18;;;;;;;4.93;2.30;;;29.00;27.90;;;;;;5055536;28;20443;-76
2022/08/03 09:52:15;;;;;;;3.63;2.23;;;29.10;25.90;;;;;;5051336;28;20608;-75
2022/08/03 09:55:01;;;;;;;3.70;2.57;;;29.20;27.90;;;;;;5053791;28;20476;-76
2022/08/03 09:57:47;;;;;;;3.37;2.23;;;29.30;27.00;;;;;;5054689;28;20448;-76
2022/08/03 10:00:33;;;;;;;4.23;2.17;;;29.30;26.00;;;;;;5045671;28;20530;-76
2022/08/03 10:03:18;;;;;;;3.53;2.40;;;29.40;26.20;;;;;;5055643;28;20442;-76
2022/08/03 10:06:16;;;;;;;4.80;2.33;;;29.50;25.90;;;;;;5052298;28;20524;-76
2022/08/03 10:09:09;;;;;;;8.90;2.90;;;29.60;25.40;;;;;;5052133;28;20788;-76
2022/08/03 10:11:55;;;;;;;3.30;2.20;;;29.60;25.40;;;;;;5040320;28;20932;-76
2022/08/03 10:14:44;;;;;;;3.50;2.23;;;29.70;25.10;;;;;;5051198;28;20448;-76
2022/08/03 10:17:30;;;;;;;3.13;2.10;;;29.80;26.50;;;;;;5053135;28;20451;-76
2022/08/03 10:20:15;;;;;;;5.43;2.33;;;29.90;25.20;;;;;;5048672;28;20491;-76
2022/08/03 10:23:02;;;;;;;15.03;3.00;;;29.90;26.10;;;;;;5051391;28;20452;-75
2022/08/03 10:25:58;;;;;;;3.30;2.00;;;30.00;24.70;;;;;;5051497;28;20828;-76
2022/08/03 10:28:49;;;;;;;3.90;2.33;;;30.10;25.90;;;;;;5050026;28;20432;-76
2022/08/03 10:31:39;;;;;;;3.40;2.60;;;30.20;25.00;;;;;;5046070;28;20806;-76
2022/08/03 10:34:28;;;;;;;3.73;2.20;;;30.20;25.60;;;;;;5057525;28;20443;-76
2022/08/03 10:37:17;;;;;;;4.07;2.53;;;30.30;25.90;;;;;;5063769;28;20434;-76
2022/08/03 10:40:03;;;;;;;4.70;2.47;;;30.30;24.40;;;;;;5048008;28;20514;-75
2022/08/03 10:42:54;;;;;;;13.03;2.60;;;30.30;24.00;;;;;;5054421;28;20928;-76
2022/08/03 10:45:42;;;;;;;4.00;2.33;;;30.40;24.90;;;;;;5048961;28;20821;-76
2022/08/03 10:48:29;;;;;;;3.23;2.20;;;30.50;24.70;;;;;;5054201;28;20442;-75
2022/08/03 10:51:15;;;;;;;3.67;2.50;;;30.60;22.80;;;;;;5045637;28;20533;-76
2022/08/03 10:54:01;;;;;;;6.23;2.43;;;30.70;23.10;;;;;;5051757;28;20434;-75
2022/08/03 11:00:03;;;;;;;6.20;2.53;;;30.80;24.30;;;;;;5044289;28;20910;-76
2022/08/03 11:03:07;;;;;;;7.10;1.90;;;30.80;22.60;;;;;;5052500;28;20531;-75
2022/08/03 11:05:54;;;;;;;12.40;2.53;;;30.90;22.70;;;;;;5049565;28;20984;-76
2022/08/03 11:08:40;;;;;;;5.73;2.20;;;31.00;24.30;;;;;;5050552;28;20558;-76
2022/08/03 11:11:27;;;;;;;3.93;2.20;;;31.10;22.80;;;;;;5048566;28;20448;-76
2022/08/03 11:14:14;;;;;;;3.70;2.33;;;31.20;22.90;;;;;;5055237;28;20447;-76
2022/08/03 11:17:08;;;;;;;3.80;2.43;;;31.30;22.20;;;;;;5057272;28;20426;-76
2022/08/03 11:19:54;;;;;;;3.00;2.13;;;31.20;23.70;;;;;;5046704;28;20551;-76
2022/08/03 11:22:49;;;;;;;3.23;2.10;;;31.30;23.00;;;;;;5050851;28;20496;-75
2022/08/03 11:26:09;;;;;;;3.83;2.30;;;31.40;21.90;;;;;;5051863;28;20448;-76
2022/08/03 11:29:28;;;;;;;4.43;2.57;;;31.60;23.20;;;;;;5044418;28;20432;-76
2022/08/03 11:33:08;;;;;;;4.47;2.40;;;31.70;23.20;;;;;;5049969;28;20835;-76
2022/08/03 11:36:02;;;;;;;6.93;1.93;;;31.70;21.80;;;;;;5054544;28;20830;-76
2022/08/03 11:39:14;;;;;;;3.47;2.07;;;31.70;22.50;;;;;;5038564;28;20951;-75
2022/08/03 11:42:00;;;;;;;4.50;2.30;;;31.80;21.80;;;;;;5049758;28;20843;-76
2022/08/03 11:44:46;;;;;;;4.27;2.03;;;31.80;21.00;;;;;;5049731;28;20443;-76
2022/08/03 11:47:38;;;;;;;4.30;2.30;;;31.80;22.30;;;;;;5055808;28;20451;-76
2022/08/03 11:50:24;;;;;;;3.73;2.50;;;32.00;23.40;;;;;;5047380;28;20582;-76
2022/08/03 11:53:14;;;;;;;4.93;2.60;;;32.10;23.80;;;;;;5048529;28;20493;-76
2022/08/03 11:56:02;;;;;;;3.97;2.80;;;32.20;23.50;;;;;;5047663;28;20508;-74
2022/08/03 11:58:48;;;;;;;4.87;2.57;;;32.20;22.90;;;;;;5044681;28;20839;-74
2022/08/03 12:01:34;;;;;;;4.63;2.37;;;32.30;22.60;;;;;;5051838;28;20452;-73
2022/08/03 12:04:20;;;;;;;5.80;2.23;;;32.40;22.10;;;;;;5054383;28;20546;-73
2022/08/03 12:07:06;;;;;;;3.40;2.40;;;32.50;22.00;;;;;;5050082;28;20952;-74
2022/08/03 12:10:06;;;;;;;4.67;2.20;;;32.40;20.50;;;;;;5045913;28;20536;-74
2022/08/03 12:12:56;;;;;;;5.03;2.80;;;32.40;22.50;;;;;;5045847;28;20503;-74
2022/08/03 12:15:43;;;;;;;3.10;1.83;;;32.50;22.70;;;;;;5053719;28;20489;-74
2022/08/03 12:18:29;;;;;;;7.30;2.47;;;32.50;22.00;;;;;;5055308;28;20423;-73
2022/08/03 12:21:17;;;;;;;3.93;2.43;;;32.50;22.00;;;;;;5050645;28;20451;-74
2022/08/03 12:24:05;;;;;;;4.80;2.27;;;32.50;22.40;;;;;;5053858;28;20450;-74
2022/08/03 12:26:51;;;;;;;3.37;2.43;;;32.60;22.90;;;;;;5058387;28;21025;-73
2022/08/03 12:29:37;;;;;;;4.37;2.37;;;32.60;22.40;;;;;;5048227;28;20460;-73
2022/08/03 12:32:24;;;;;;;5.50;2.90;;;32.70;23.20;;;;;;5049082;28;20486;-73
2022/08/03 12:35:10;;;;;;;5.70;2.70;;;32.70;21.20;;;;;;5055225;28;20463;-73
2022/08/03 12:37:57;;;;;;;4.60;2.27;;;32.80;21.30;;;;;;5051648;28;20438;-73
2022/08/03 12:40:43;;;;;;;6.07;2.37;;;32.80;21.10;;;;;;5049801;28;20479;-73
2022/08/03 12:43:29;;;;;;;3.40;2.30;;;32.80;21.40;;;;;;5053997;28;20485;-73
2022/08/03 12:46:16;;;;;;;4.40;2.70;;;32.90;22.00;;;;;;5054315;28;21090;-73
2022/08/03 12:49:07;;;;;;;3.27;2.00;;;33.10;21.90;;;;;;5047289;28;21540;-73
2022/08/03 12:51:58;;;;;;;8.53;2.40;;;33.30;21.40;;;;;;5053790;28;20774;-73
2022/08/03 12:54:55;;;;;;;6.07;2.70;;;33.30;20.20;;;;;;5052928;28;20459;-73
2022/08/03 12:57:41;;;;;;;4.43;2.40;;;33.40;21.80;;;;;;5052143;28;20492;-73
2022/08/03 13:00:29;;;;;;;6.10;2.10;;;33.50;20.80;;;;;;5051381;28;20471;-74
2022/08/03 13:03:14;;;;;;;4.93;2.10;;;33.60;20.60;;;;;;5057554;28;20902;-73
2022/08/03 13:06:00;;;;;;;4.67;3.00;;;33.80;19.90;;;;;;5052563;28;20975;-74
2022/08/03 13:08:47;;;;;;;3.93;2.40;;;33.90;20.20;;;;;;5051040;28;20960;-73
2022/08/03 13:11:34;;;;;;;9.00;2.17;;;34.00;20.80;;;;;;5051232;28;20448;-74
2022/08/03 13:14:20;;;;;;;3.80;2.20;;;34.10;20.10;;;;;;5055006;28;20447;-73
2022/08/03 13:17:06;;;;;;;2.80;1.60;;;34.00;18.30;;;;;;5053955;28;20967;-74
2022/08/03 13:19:52;;;;;;;3.87;1.67;;;34.20;19.00;;;;;;5049114;28;21007;-73
2022/08/03 13:22:38;;;;;;;3.20;1.87;;;34.30;18.90;;;;;;5052228;28;21511;-73
2022/08/03 13:25:23;;;;;;;6.10;2.10;;;34.40;17.50;;;;;;5054988;28;20587;-73
2022/08/03 13:28:10;;;;;;;4.10;1.87;;;34.40;17.90;;;;;;5050296;28;20448;-73
2022/08/03 13:30:56;;;;;;;3.97;2.17;;;34.40;17.40;;;;;;5055298;28;20444;-74
2022/08/03 13:33:42;;;;;;;4.07;2.13;;;34.60;17.20;;;;;;5054767;28;20448;-73
2022/08/03 13:36:28;;;;;;;8.63;2.20;;;34.80;17.60;;;;;;5048497;28;20813;-74
2022/08/03 13:39:13;;;;;;;3.97;1.53;;;34.90;16.90;;;;;;5048422;28;20549;-74
2022/08/03 13:41:59;;;;;;;3.80;1.70;;;34.90;16.80;;;;;;5051710;28;20422;-73
2022/08/03 13:44:46;;;;;;;3.27;1.70;;;34.80;15.50;;;;;;5050959;28;20456;-73
2022/08/03 13:47:32;;;;;;;2.67;1.47;;;35.00;15.00;;;;;;5053511;28;20432;-74
2022/08/03 13:50:18;;;;;;;3.70;1.77;;;35.10;16.10;;;;;;5053520;28;20431;-74
2022/08/03 13:53:04;;;;;;;6.00;2.10;;;35.30;16.70;;;;;;5055324;28;20504;-74
2022/08/03 13:55:49;;;;;;;8.27;2.03;;;35.40;16.30;;;;;;5050108;28;20459;-73
2022/08/03 13:58:35;;;;;;;3.77;1.93;;;35.50;16.50;;;;;;5049189;28;20443;-73
2022/08/03 14:01:22;;;;;;;2.87;1.73;;;35.20;15.00;;;;;;5058221;28;20439;-73
2022/08/03 14:04:08;;;;;;;3.30;1.93;;;35.00;16.30;;;;;;5052604;28;20423;-73
2022/08/03 14:06:54;;;;;;;3.27;1.67;;;35.10;16.60;;;;;;5061096;28;20532;-74
2022/08/03 14:09:39;;;;;;;8.30;1.93;;;35.30;16.70;;;;;;5053918;28;20435;-74
2022/08/03 14:12:25;;;;;;;3.07;1.50;;;35.50;16.70;;;;;;5058008;28;20423;-74
2022/08/03 14:15:11;;;;;;;6.93;1.70;;;35.60;15.10;;;;;;5055530;28;20469;-73
2022/08/03 14:17:58;;;;;;;4.00;1.70;;;35.50;14.90;;;;;;5050316;28;20498;-73
2022/08/03 14:20:44;;;;;;;2.80;1.60;;;35.50;15.60;;;;;;5050249;28;20479;-73
2022/08/03 14:23:30;;;;;;;3.63;1.90;;;35.30;15.40;;;;;;5051427;28;20447;-74
2022/08/03 14:26:17;;;;;;;3.23;2.13;;;35.20;15.80;;;;;;5064908;22;20496;-72
2022/08/03 14:29:04;;;;;;;5.33;2.00;;;35.20;16.70;;;;;;5024957;28;20444;-72
2022/08/03 14:31:50;;;;;;;3.23;1.93;;;35.40;17.40;;;;;;5042863;28;20448;-71
2022/08/03 14:34:37;;;;;;;3.33;1.90;;;35.40;16.20;;;;;;5027742;28;20438;-72
2022/08/03 14:37:22;;;;;;;4.13;1.80;;;35.40;15.70;;;;;;5038019;28;20613;-71
2022/08/03 14:40:09;;;;;;;6.37;2.10;;;35.20;15.10;;;;;;5045467;28;20918;-71
2022/08/03 14:42:54;;;;;;;11.80;2.00;;;35.20;15.40;;;;;;5040348;28;20439;-71
2022/08/03 14:45:40;;;;;;;3.63;1.87;;;35.20;16.30;;;;;;5040162;28;20467;-72